createdAt,value
2022-11-29T00:03:14.303Z,80.99
2022-11-29T00:08:17.597Z,81.22
2022-11-29T00:13:22.243Z,80.87
2022-11-29T00:18:25.545Z,80.85
2022-11-29T00:23:28.820Z,80.88
2022-11-29T00:28:33.799Z,80.43
2022-11-29T00:33:37.028Z,80.70
2022-11-29T00:38:40.380Z,81.06
2022-11-29T00:43:45.167Z,80.81
2022-11-29T00:48:48.401Z,80.96
2022-11-29T00:53:51.705Z,81.75
2022-11-29T00:58:56.341Z,81.00
2022-11-29T01:04:01.284Z,80.86
2022-11-29T01:09:05.518Z,81.50
2022-11-29T01:14:10.447Z,81.63
2022-11-29T01:19:13.718Z,81.81
2022-11-29T01:24:17.004Z,81.83
2022-11-29T01:29:21.686Z,82.18
2022-11-29T01:34:24.978Z,81.42
2022-11-29T01:39:28.293Z,81.93
2022-11-29T01:45:06.174Z,81.37
2022-11-29T01:50:11.023Z,81.19
2022-11-29T01:55:14.987Z,81.07
2022-11-29T02:00:21.389Z,81.08
2022-11-29T02:05:26.359Z,81.45
2022-11-29T02:10:45.791Z,81.26
2022-11-29T02:15:58.116Z,80.99
2022-11-29T02:21:28.453Z,82.12
2022-11-29T02:27:01.344Z,81.61
2022-11-29T02:32:41.682Z,82.16
2022-11-29T02:38:03.409Z,81.85
2022-11-29T02:43:29.431Z,81.67
2022-11-29T02:48:52.144Z,81.39
2022-11-29T02:54:01.552Z,81.58
2022-11-29T02:59:12.455Z,81.99
2022-11-29T03:04:27.337Z,81.50
2022-11-29T03:09:38.255Z,82.43
2022-11-29T03:14:50.829Z,81.70
2022-11-29T03:20:07.657Z,81.75
2022-11-29T03:25:19.153Z,81.76
2022-11-29T03:30:23.038Z,82.21
2022-11-29T03:35:37.945Z,81.86
2022-11-29T03:40:47.877Z,82.25
2022-11-29T03:45:57.341Z,81.82
2022-11-29T03:51:07.834Z,82.23
2022-11-29T03:56:27.431Z,82.01
2022-11-29T04:01:56.250Z,81.92
2022-11-29T04:07:16.486Z,82.54
2022-11-29T04:12:46.624Z,82.63
2022-11-29T04:18:16.201Z,82.56
2022-11-29T04:24:05.668Z,82.41
2022-11-29T04:29:20.688Z,82.36
2022-11-29T04:34:47.413Z,82.05
2022-11-29T04:40:25.481Z,82.09
2022-11-29T04:46:00.397Z,82.35
2022-11-29T04:51:22.722Z,81.95
2022-11-29T04:56:35.996Z,82.36
2022-11-29T05:01:51.701Z,82.42
2022-11-29T05:07:03.565Z,82.58
2022-11-29T05:12:16.165Z,82.19
2022-11-29T05:17:34.769Z,82.27
2022-11-29T05:22:49.805Z,82.25
2022-11-29T05:27:59.623Z,82.51
2022-11-29T05:33:19.079Z,82.06
2022-11-29T05:38:40.295Z,82.63
2022-11-29T05:44:01.155Z,82.33
2022-11-29T05:49:18.306Z,81.79
2022-11-29T05:54:30.838Z,82.15
2022-11-29T05:59:39.398Z,82.11
2022-11-29T06:04:58.759Z,82.02
2022-11-29T06:10:05.532Z,81.82
2022-11-29T06:15:39.454Z,82.10
2022-11-29T06:20:58.725Z,82.39
2022-11-29T06:26:19.596Z,81.64
2022-11-29T06:31:29.682Z,81.82
2022-11-29T06:36:37.570Z,81.12
2022-11-29T06:41:40.758Z,81.64
2022-11-29T06:46:49.172Z,81.77
2022-11-29T06:52:07.095Z,81.72
2022-11-29T06:57:18.261Z,81.54
2022-11-29T07:02:35.465Z,81.77
2022-11-29T07:07:39.244Z,81.07
2022-11-29T07:12:43.090Z,81.69
2022-11-29T07:17:58.151Z,81.10
2022-11-29T07:23:07.844Z,80.96
2022-11-29T07:28:22.308Z,80.96
2022-11-29T07:33:35.822Z,81.42
2022-11-29T07:38:54.299Z,81.60
2022-11-29T07:44:04.705Z,81.49
2022-11-29T07:49:11.254Z,81.32
2022-11-29T07:54:19.175Z,81.32
2022-11-29T07:59:22.303Z,81.55
2022-11-29T08:04:26.942Z,81.52
2022-11-29T08:09:30.090Z,81.74
2022-11-29T08:14:33.780Z,81.27
2022-11-29T08:19:38.342Z,81.37
2022-11-29T08:24:41.501Z,80.82
2022-11-29T08:29:44.706Z,80.64
2022-11-29T08:34:49.694Z,80.11
2022-11-29T08:39:52.850Z,80.43
2022-11-29T08:44:55.974Z,79.74
2022-11-29T08:50:03.527Z,80.36
2022-11-29T08:55:07.491Z,80.44
2022-11-29T09:00:12.034Z,80.59
2022-11-29T09:05:16.792Z,80.69
2022-11-29T09:10:20.116Z,80.64
2022-11-29T09:15:23.273Z,80.65
2022-11-29T09:20:27.944Z,80.02
2022-11-29T09:25:31.177Z,79.72
2022-11-29T09:30:36.689Z,79.76
2022-11-29T09:35:41.215Z,79.48
2022-11-29T09:40:52.712Z,79.28
2022-11-29T09:46:03.357Z,78.92
2022-11-29T09:51:20.086Z,78.24
2022-11-29T09:56:29.840Z,78.09
2022-11-29T10:01:38.499Z,78.80
2022-11-29T10:06:47.062Z,78.49
2022-11-29T10:12:02.441Z,78.57
2022-11-29T10:17:08.334Z,79.42
2022-11-29T10:22:18.191Z,79.28
2022-11-29T10:27:25.065Z,79.58
2022-11-29T10:32:33.326Z,78.26
2022-11-29T10:37:38.072Z,78.23
2022-11-29T10:42:50.329Z,78.93
2022-11-29T10:47:55.209Z,79.30
2022-11-29T10:53:06.069Z,78.81
2022-11-29T10:58:15.613Z,78.27
2022-11-29T11:03:25.754Z,78.21
2022-11-29T11:08:31.900Z,78.71
2022-11-29T11:13:36.481Z,78.61
2022-11-29T11:18:39.894Z,77.82
2022-11-29T11:23:53.313Z,77.72
2022-11-29T11:29:00.734Z,77.53
2022-11-29T11:34:30.288Z,76.94
2022-11-29T11:39:34.853Z,77.00
2022-11-29T11:44:49.504Z,76.37
2022-11-29T11:49:57.209Z,76.06
2022-11-29T11:55:05.722Z,75.86
2022-11-29T12:06:15.925Z,75.51
2022-11-29T12:11:21.875Z,75.49
2022-11-29T12:16:29.696Z,74.85
2022-11-29T12:21:38.859Z,74.41
2022-11-29T12:27:00.024Z,74.48
2022-11-29T12:32:19.031Z,74.11
2022-11-29T12:37:27.860Z,74.65
2022-11-29T12:42:42.358Z,74.90
2022-11-29T12:47:56.406Z,74.23
2022-11-29T12:53:11.957Z,74.12
2022-11-29T12:58:26.476Z,73.06
2022-11-29T13:03:38.566Z,73.99
2022-11-29T13:09:14.734Z,73.13
2022-11-29T13:14:42.624Z,72.64
2022-11-29T13:19:51.335Z,69.54
2022-11-29T13:24:58.865Z,67.06
2022-11-29T13:30:05.944Z,65.80
2022-11-29T13:35:19.654Z,64.11
2022-11-29T13:40:32.417Z,64.09
2022-11-29T13:45:41.559Z,64.56
2022-11-29T13:50:46.228Z,65.52
2022-11-29T13:56:00.122Z,65.79
2022-11-29T14:01:09.360Z,66.58
2022-11-29T14:06:18.895Z,66.47
2022-11-29T14:11:25.797Z,66.10
2022-11-29T14:16:35.447Z,65.15
2022-11-29T14:22:31.590Z,64.96
2022-11-29T14:27:58.945Z,64.35
2022-11-29T14:33:11.184Z,64.61
2022-11-29T14:38:20.337Z,63.98
2022-11-29T14:43:27.882Z,62.89
2022-11-29T14:48:34.295Z,61.47
2022-11-29T14:53:39.057Z,59.33
2022-11-29T14:58:42.254Z,57.62
2022-11-29T15:03:50.966Z,58.13
2022-11-29T15:09:05.042Z,57.05
2022-11-29T15:14:17.298Z,56.87
2022-11-29T15:19:51.200Z,56.07
2022-11-29T15:24:56.396Z,59.34
2022-11-29T15:30:00.566Z,59.09
2022-11-29T15:35:06.388Z,60.37
2022-11-29T15:40:14.095Z,61.14
2022-11-29T15:45:39.119Z,61.29
2022-11-29T15:50:46.053Z,61.42
2022-11-29T15:55:51.900Z,62.40
2022-11-29T16:00:56.137Z,63.27
2022-11-29T16:06:07.601Z,64.31
2022-11-29T16:11:17.207Z,65.10
2022-11-29T16:16:23.090Z,65.61
2022-11-29T16:21:29.122Z,67.88
2022-11-29T16:26:36.738Z,68.61
2022-11-29T16:31:39.958Z,69.79
2022-11-29T16:36:44.621Z,70.98
2022-11-29T16:42:03.798Z,71.93
2022-11-29T16:47:12.462Z,72.94
2022-11-29T16:52:27.166Z,73.55
2022-11-29T16:57:31.263Z,73.42
2022-11-29T17:02:34.659Z,74.77
2022-11-29T17:07:41.360Z,74.47
2022-11-29T17:12:48.081Z,74.40
2022-11-29T17:17:51.657Z,75.50
2022-11-29T17:22:56.209Z,75.58
2022-11-29T17:27:59.342Z,76.90
2022-11-29T17:33:02.502Z,76.48
2022-11-29T17:38:07.073Z,76.60
2022-11-29T17:43:10.345Z,77.30
2022-11-29T17:48:13.493Z,77.99
2022-11-29T17:53:18.054Z,76.98
2022-11-29T17:58:21.183Z,77.36
2022-11-29T18:03:24.303Z,77.11
2022-11-29T18:08:29.206Z,77.33
2022-11-29T18:13:32.349Z,77.83
2022-11-29T18:18:36.365Z,77.51
2022-11-29T18:23:44.037Z,78.47
2022-11-29T18:28:48.035Z,78.19
2022-11-29T18:33:53.758Z,78.87
2022-11-29T18:39:00.262Z,78.35
2022-11-29T18:44:05.775Z,78.56
2022-11-29T18:49:12.092Z,79.13
2022-11-29T18:54:18.752Z,78.22
2022-11-29T18:59:23.102Z,78.55
2022-11-29T19:04:26.284Z,78.49
2022-11-29T19:09:30.817Z,78.96
2022-11-29T19:14:34.101Z,79.45
2022-11-29T19:19:37.224Z,79.43
2022-11-29T19:24:41.789Z,79.76
2022-11-29T19:29:44.936Z,79.81
2022-11-29T19:34:48.054Z,79.56
2022-11-29T19:39:52.987Z,79.10
2022-11-29T19:50:19.625Z,79.42
2022-11-29T19:55:24.189Z,79.06
2022-11-29T20:00:28.348Z,79.24
2022-11-29T20:05:31.497Z,78.95
2022-11-29T20:10:36.177Z,78.77
2022-11-29T20:15:39.353Z,79.21
2022-11-29T20:20:42.553Z,78.69
2022-11-29T20:25:51.554Z,79.35
2022-11-29T20:30:55.165Z,79.39
2022-11-29T20:36:07.106Z,79.34
2022-11-29T20:41:16.589Z,79.93
2022-11-29T20:46:20.219Z,79.75
2022-11-29T20:51:28.386Z,80.25
2022-11-29T20:56:32.931Z,80.04
2022-11-29T21:01:36.112Z,79.81
2022-11-29T21:06:39.798Z,80.13
2022-11-29T21:11:44.807Z,80.15
2022-11-29T21:16:48.478Z,80.40
2022-11-29T21:22:04.376Z,80.53
2022-11-29T21:27:14.809Z,80.30
2022-11-29T21:32:23.213Z,80.01
2022-11-29T21:37:29.345Z,79.83
2022-11-29T21:42:33.909Z,79.79
2022-11-29T21:47:37.106Z,80.23
2022-11-29T21:52:40.262Z,80.85
2022-11-29T21:57:44.782Z,80.82
2022-11-29T22:02:47.988Z,80.52
2022-11-29T22:07:51.150Z,80.03
2022-11-29T22:12:55.729Z,80.64
2022-11-29T22:17:58.955Z,81.08
2022-11-29T22:23:02.249Z,81.45
2022-11-29T22:28:06.897Z,81.07
2022-11-29T22:33:13.336Z,80.93
2022-11-29T22:38:16.783Z,80.51
2022-11-29T22:43:21.346Z,80.43
2022-11-29T22:48:24.505Z,80.62
2022-11-29T22:53:27.658Z,80.39
2022-11-29T22:58:32.255Z,79.97
2022-11-29T23:03:36.799Z,80.97
2022-11-29T23:08:40.864Z,81.49
2022-11-29T23:13:45.710Z,81.22
2022-11-29T23:18:49.438Z,80.74
2022-11-29T23:23:56.281Z,81.23
2022-11-29T23:29:01.266Z,81.87
2022-11-29T23:34:04.878Z,82.54
2022-11-29T23:39:08.372Z,82.49
2022-11-29T23:44:12.915Z,82.57
2022-11-29T23:49:16.071Z,83.18
2022-11-29T23:54:19.249Z,83.00
2022-11-29T23:59:23.803Z,82.75
